Time;durP1;ratioP1;P1;durP2;ratioP2;P2;SDS_P1;SDS_P2;PMS_P1;PMS_P2;Temp;Humidity;BMP_temperature;BMP_pressure;BME280_temperature;BME280_humidity;BME280_pressure;Samples;Min_cycle;Max_cycle;Signal;HPM_P1;HPM_P2
2023/03/20 00:00:40;;;;;;;6.68;5.80;;;11.60;99.90;;;;;;5012273;28;20030;-54
2023/03/20 00:03:26;;;;;;;6.68;5.75;;;11.70;99.90;;;;;;4993757;28;20042;-53
2023/03/20 00:06:23;;;;;;;7.95;6.00;;;11.70;99.90;;;;;;4993839;28;20026;-56
2023/03/20 00:09:10;;;;;;;7.90;5.45;;;11.70;99.90;;;;;;5011088;28;20081;-53
2023/03/20 00:11:57;;;;;;;6.30;5.63;;;11.80;99.90;;;;;;5007362;28;20034;-53
2023/03/20 00:14:42;;;;;;;6.18;5.57;;;11.80;99.90;;;;;;4998474;28;20030;-52
2023/03/20 00:17:29;;;;;;;8.15;5.55;;;11.80;99.90;;;;;;5010381;28;20099;-55
2023/03/20 00:20:16;;;;;;;7.10;5.45;;;11.80;99.90;;;;;;5010766;28;20077;-57
2023/03/20 00:23:03;;;;;;;5.80;5.18;;;11.80;99.90;;;;;;5011913;28;20024;-56
2023/03/20 00:25:49;;;;;;;6.47;5.88;;;11.80;99.90;;;;;;5011469;28;20030;-56
2023/03/20 00:28:43;;;;;;;5.63;4.97;;;11.80;99.90;;;;;;5009690;28;20042;-55
2023/03/20 00:31:33;;;;;;;5.82;4.97;;;11.80;99.90;;;;;;5011687;28;20022;-51
2023/03/20 00:34:22;;;;;;;6.70;5.63;;;11.80;99.90;;;;;;5011450;28;20108;-55
2023/03/20 00:37:10;;;;;;;7.28;5.68;;;11.70;99.90;;;;;;5009482;28;20026;-53
2023/03/20 00:39:56;;;;;;;7.72;6.07;;;11.60;99.90;;;;;;5011591;28;20018;-53
2023/03/20 00:42:45;;;;;;;6.80;5.75;;;11.40;99.90;;;;;;4991420;28;20026;-55
2023/03/20 00:45:34;;;;;;;6.35;5.75;;;11.40;99.90;;;;;;5001415;28;20025;-55
2023/03/20 00:48:20;;;;;;;6.75;5.90;;;11.40;99.90;;;;;;5011331;28;20545;-52
2023/03/20 00:51:06;;;;;;;7.38;6.03;;;11.30;99.90;;;;;;5010432;28;20060;-55
2023/03/20 00:53:52;;;;;;;6.13;5.53;;;11.30;99.90;;;;;;5009478;28;20033;-49
2023/03/20 00:56:45;;;;;;;8.05;5.88;;;11.30;99.90;;;;;;5009912;28;20455;-49
2023/03/20 00:59:34;;;;;;;5.90;5.30;;;11.30;99.90;;;;;;5011896;28;20030;-50
2023/03/20 01:02:23;;;;;;;7.90;6.35;;;11.20;99.90;;;;;;5011417;28;20080;-52
2023/03/20 01:05:09;;;;;;;7.75;6.43;;;11.20;99.90;;;;;;4991544;28;20042;-50
2023/03/20 01:07:55;;;;;;;6.85;6.13;;;11.20;99.90;;;;;;4992319;28;20035;-49
2023/03/20 01:10:43;;;;;;;6.85;6.13;;;11.20;99.90;;;;;;5010060;28;20461;-52
2023/03/20 01:13:31;;;;;;;7.72;6.68;;;11.10;99.90;;;;;;5010464;28;20030;-53
2023/03/20 01:16:21;;;;;;;8.35;6.65;;;11.20;99.90;;;;;;5010694;28;20491;-52
2023/03/20 01:19:14;;;;;;;8.43;6.70;;;11.20;99.90;;;;;;5009234;28;20022;-51
2023/03/20 01:22:01;;;;;;;7.05;6.18;;;11.20;99.90;;;;;;5010305;28;20037;-49
2023/03/20 01:24:47;;;;;;;10.68;6.82;;;11.20;99.90;;;;;;5010424;28;20052;-54
2023/03/20 01:27:33;;;;;;;7.97;6.55;;;11.10;99.90;;;;;;5013632;28;20029;-49
2023/03/20 01:30:25;;;;;;;6.57;5.97;;;11.10;99.90;;;;;;5014436;28;20068;-49
2023/03/20 01:33:21;;;;;;;10.80;6.93;;;11.10;99.90;;;;;;5013409;28;20026;-48
2023/03/20 01:36:08;;;;;;;;;;;11.10;99.90;;;;;;5014759;28;20038;-54
2023/03/20 01:38:56;;;;;;;8.10;6.43;;;11.00;99.90;;;;;;5014823;28;20258;-53
2023/03/20 01:41:44;;;;;;;7.32;6.50;;;11.00;99.90;;;;;;4994740;28;20039;-52
2023/03/20 01:44:32;;;;;;;8.07;7.05;;;10.90;99.90;;;;;;4996494;28;20039;-55
2023/03/20 01:47:23;;;;;;;8.20;6.75;;;11.00;99.90;;;;;;5014123;28;20064;-52
2023/03/20 01:50:21;;;;;;;8.88;7.07;;;11.00;99.90;;;;;;5013774;28;20567;-51
2023/03/20 01:53:15;;;;;;;7.72;6.90;;;10.90;99.90;;;;;;5014564;28;20104;-55
2023/03/20 01:56:01;;;;;;;7.60;6.63;;;10.90;99.90;;;;;;5015233;28;20033;-49
2023/03/20 01:58:52;;;;;;;8.18;7.35;;;10.90;99.90;;;;;;5013879;28;20402;-52
2023/03/20 02:01:39;;;;;;;7.72;7.03;;;10.90;99.90;;;;;;5013422;28;20108;-49
2023/03/20 02:04:31;;;;;;;8.50;6.88;;;10.90;99.90;;;;;;5014141;28;20042;-49
2023/03/20 02:07:20;;;;;;;8.18;7.00;;;10.90;99.90;;;;;;5012520;28;20490;-51
2023/03/20 02:10:13;;;;;;;10.15;7.20;;;10.90;99.90;;;;;;4994437;28;20039;-51
2023/03/20 02:13:00;;;;;;;9.70;8.05;;;10.90;99.90;;;;;;5011160;28;20026;-52
2023/03/20 02:15:56;;;;;;;9.00;8.20;;;10.80;99.90;;;;;;5012104;28;20060;-54
2023/03/20 02:18:48;;;;;;;8.27;7.47;;;10.80;99.90;;;;;;4993875;28;20031;-53
2023/03/20 02:22:11;;;;;;;7.85;7.07;;;10.80;99.90;;;;;;5000621;28;20026;-49
2023/03/20 02:25:26;;;;;;;10.40;8.05;;;10.80;99.90;;;;;;5013898;28;20033;-52
2023/03/20 02:28:38;;;;;;;8.73;7.82;;;10.80;99.90;;;;;;4993776;28;20033;-51
2023/03/20 02:31:54;;;;;;;9.88;8.15;;;10.80;99.90;;;;;;4998345;28;20029;-50
2023/03/20 02:34:49;;;;;;;7.95;6.97;;;10.80;99.90;;;;;;5012302;28;20057;-53
2023/03/20 02:37:44;;;;;;;8.70;7.80;;;10.80;99.90;;;;;;5008323;28;20038;-52
2023/03/20 02:40:38;;;;;;;10.15;8.55;;;10.70;99.90;;;;;;4994651;28;20029;-52
2023/03/20 02:43:42;;;;;;;9.90;8.90;;;10.70;99.90;;;;;;5013512;28;20026;-50
2023/03/20 02:46:52;;;;;;;9.18;8.23;;;10.50;99.90;;;;;;5012868;28;20026;-54
2023/03/20 02:50:19;;;;;;;10.90;8.38;;;10.50;99.90;;;;;;5011810;28;20057;-50
2023/03/20 02:53:32;;;;;;;11.77;8.75;;;10.60;99.90;;;;;;5012066;28;20030;-50
2023/03/20 02:56:24;;;;;;;9.32;8.30;;;10.70;99.90;;;;;;5012551;28;20025;-52
2023/03/20 02:59:31;;;;;;;8.70;7.88;;;10.80;99.90;;;;;;5012527;28;20083;-52
2023/03/20 03:02:40;;;;;;;11.23;8.48;;;10.80;99.90;;;;;;5010915;28;20022;-52
2023/03/20 03:05:41;;;;;;;12.65;8.23;;;10.70;99.90;;;;;;5012688;28;20041;-54
2023/03/20 03:08:32;;;;;;;10.52;8.98;;;10.70;99.90;;;;;;5010271;28;20064;-51
2023/03/20 03:11:18;;;;;;;11.52;10.32;;;10.80;99.90;;;;;;4996586;28;20474;-54
2023/03/20 03:14:06;;;;;;;10.68;8.93;;;10.70;99.90;;;;;;5012118;28;20591;-55
2023/03/20 03:16:53;;;;;;;9.82;8.38;;;10.70;99.90;;;;;;5012896;28;20113;-53
2023/03/20 03:19:45;;;;;;;11.30;9.55;;;10.60;99.90;;;;;;5005984;28;20030;-52
2023/03/20 03:22:33;;;;;;;10.25;9.18;;;10.50;99.90;;;;;;5011475;28;20463;-57
2023/03/20 03:25:24;;;;;;;10.60;9.50;;;10.60;99.90;;;;;;5010717;28;20173;-51
2023/03/20 03:28:27;;;;;;;11.50;10.30;;;10.60;99.90;;;;;;5009114;28;20100;-52
2023/03/20 03:31:16;;;;;;;10.93;9.82;;;10.80;99.90;;;;;;5011491;28;20073;-57
2023/03/20 03:34:02;;;;;;;10.32;9.32;;;10.70;99.90;;;;;;5012772;28;20104;-52
2023/03/20 03:37:02;;;;;;;11.60;10.00;;;10.80;99.90;;;;;;4993007;28;20027;-53
2023/03/20 03:39:53;;;;;;;11.43;10.30;;;10.60;99.90;;;;;;4996667;28;20037;-53
2023/03/20 03:43:07;;;;;;;10.68;9.68;;;10.60;99.90;;;;;;5012402;28;20030;-54
2023/03/20 03:46:25;;;;;;;12.40;10.63;;;10.50;99.90;;;;;;5010966;28;20498;-54
2023/03/20 03:49:19;;;;;;;10.63;9.52;;;10.50;99.90;;;;;;5009988;28;20084;-53
2023/03/20 03:52:12;;;;;;;12.15;10.95;;;10.50;99.90;;;;;;5012465;28;20045;-54
2023/03/20 03:55:26;;;;;;;11.30;10.20;;;10.60;99.90;;;;;;5012137;28;20057;-53
2023/03/20 03:58:18;;;;;;;11.15;10.00;;;10.60;99.90;;;;;;4990886;28;20081;-55
2023/03/20 04:01:06;;;;;;;11.55;10.38;;;10.60;99.90;;;;;;4993520;28;20026;-55
2023/03/20 04:03:56;;;;;;;11.43;10.32;;;10.60;99.90;;;;;;5011636;28;20018;-53
2023/03/20 04:06:42;;;;;;;11.50;10.40;;;10.60;99.90;;;;;;5010992;28;20026;-56
2023/03/20 04:09:29;;;;;;;11.50;10.30;;;10.60;99.90;;;;;;5010390;28;20026;-53
2023/03/20 04:12:37;;;;;;;12.13;10.18;;;10.70;99.90;;;;;;5011404;28;20037;-52
2023/03/20 04:15:23;;;;;;;11.82;10.73;;;10.70;99.90;;;;;;5011634;28;20568;-56
2023/03/20 04:18:15;;;;;;;10.60;9.60;;;10.70;99.90;;;;;;5010556;28;20033;-52
2023/03/20 04:21:02;;;;;;;11.55;10.18;;;10.80;99.90;;;;;;5012755;28;20026;-55
2023/03/20 04:23:48;;;;;;;12.90;9.90;;;10.80;99.90;;;;;;5010988;28;20088;-57
2023/03/20 04:26:33;;;;;;;10.88;9.85;;;10.80;99.90;;;;;;5011043;28;20414;-56
2023/03/20 04:29:19;;;;;;;11.27;10.18;;;10.80;99.90;;;;;;4999475;28;20163;-55
2023/03/20 04:32:06;;;;;;;11.85;10.23;;;10.80;99.90;;;;;;5010302;28;20041;-57
2023/03/20 04:34:52;;;;;;;12.02;10.82;;;10.70;99.90;;;;;;4995918;28;20026;-58
2023/03/20 04:37:37;;;;;;;12.05;10.80;;;10.70;99.90;;;;;;5011611;28;20032;-56
2023/03/20 04:40:23;;;;;;;11.07;10.00;;;10.70;99.90;;;;;;5010764;28;20033;-53
2023/03/20 04:43:09;;;;;;;11.23;10.13;;;10.80;99.90;;;;;;4977817;28;20217;-53
2023/03/20 04:45:55;;;;;;;11.20;9.55;;;10.80;99.90;;;;;;4992597;28;20031;-51
2023/03/20 04:48:41;;;;;;;11.38;10.25;;;11.00;99.90;;;;;;5010899;28;20038;-52
2023/03/20 04:51:27;;;;;;;11.43;10.32;;;10.90;99.90;;;;;;5010892;28;20429;-53
2023/03/20 04:54:13;;;;;;;11.60;10.43;;;11.00;99.90;;;;;;5010169;28;20112;-56
2023/03/20 04:56:59;;;;;;;11.85;10.40;;;10.90;99.90;;;;;;5010043;28;20052;-50
2023/03/20 04:59:45;;;;;;;11.63;9.93;;;10.90;99.90;;;;;;5008767;28;20116;-56
2023/03/20 05:02:31;;;;;;;11.98;10.77;;;11.00;99.90;;;;;;5009722;28;20034;-52
2023/03/20 05:05:17;;;;;;;11.85;10.48;;;11.00;99.90;;;;;;5010812;28;20045;-53
2023/03/20 05:08:05;;;;;;;16.98;11.98;;;11.00;99.90;;;;;;5010877;28;20069;-52
2023/03/20 05:10:51;;;;;;;11.45;10.35;;;10.80;99.90;;;;;;5010240;28;20395;-51
2023/03/20 05:13:37;;;;;;;12.30;11.10;;;10.90;99.90;;;;;;5010604;28;20042;-53
2023/03/20 05:16:23;;;;;;;12.38;10.95;;;10.90;99.90;;;;;;5010814;28;20030;-51
2023/03/20 05:19:09;;;;;;;14.07;10.95;;;10.90;99.90;;;;;;4995505;28;20483;-51
2023/03/20 05:21:55;;;;;;;13.32;11.95;;;11.00;99.90;;;;;;5010735;28;20110;-53
2023/03/20 05:24:41;;;;;;;12.15;10.95;;;11.00;99.90;;;;;;5011419;28;20032;-51
2023/03/20 05:27:27;;;;;;;14.00;11.52;;;11.00;99.90;;;;;;4992030;28;20056;-52
2023/03/20 05:30:13;;;;;;;13.77;12.32;;;11.00;99.90;;;;;;4998298;28;20030;-53
2023/03/20 05:32:59;;;;;;;14.07;11.88;;;11.00;99.90;;;;;;5000373;28;20042;-53
2023/03/20 05:35:45;;;;;;;14.45;12.95;;;11.10;99.90;;;;;;5020650;28;20026;-58
2023/03/20 05:38:31;;;;;;;15.10;13.50;;;11.00;99.90;;;;;;5021199;28;20549;-54
2023/03/20 05:41:17;;;;;;;18.75;14.93;;;11.00;99.90;;;;;;5017510;28;20435;-53
2023/03/20 05:44:03;;;;;;;20.65;17.45;;;10.90;99.90;;;;;;5011620;28;20018;-55
2023/03/20 05:46:49;;;;;;;21.25;16.90;;;11.00;99.90;;;;;;5010860;28;20027;-53
2023/03/20 05:49:35;;;;;;;22.42;17.73;;;11.10;99.90;;;;;;5002882;28;20034;-50
2023/03/20 05:52:22;;;;;;;32.78;21.90;;;11.10;99.90;;;;;;5002645;28;20109;-59
2023/03/20 05:55:08;;;;;;;29.48;22.88;;;11.00;99.90;;;;;;4981780;28;20062;-54
2023/03/20 05:57:54;;;;;;;28.95;22.60;;;11.00;99.90;;;;;;4995119;28;20027;-54
2023/03/20 06:00:40;;;;;;;29.33;21.95;;;10.90;99.90;;;;;;5003454;28;20108;-58
2023/03/20 06:03:26;;;;;;;28.77;21.02;;;10.80;99.90;;;;;;5001030;28;20034;-59
2023/03/20 06:06:13;;;;;;;29.75;21.33;;;10.80;99.90;;;;;;4999371;28;20074;-57
2023/03/20 06:08:59;;;;;;;36.38;25.17;;;10.80;99.90;;;;;;5011336;28;20026;-55
2023/03/20 06:11:45;;;;;;;40.13;27.23;;;10.80;99.90;;;;;;4992376;28;20033;-58
2023/03/20 06:14:31;;;;;;;53.78;36.17;;;10.80;99.90;;;;;;4997246;28;20052;-53
2023/03/20 06:17:17;;;;;;;55.03;37.55;;;10.80;99.90;;;;;;5014257;28;20080;-56
2023/03/20 06:20:04;;;;;;;61.25;38.38;;;10.80;99.90;;;;;;5013763;28;20113;-55
2023/03/20 06:22:50;;;;;;;63.72;41.05;;;10.60;99.90;;;;;;5012303;28;20029;-55
2023/03/20 06:25:37;;;;;;;70.00;44.17;;;10.60;99.90;;;;;;5013868;28;20069;-57
2023/03/20 06:28:23;;;;;;;71.20;43.03;;;10.50;99.90;;;;;;4998063;28;20030;-55
2023/03/20 06:31:09;;;;;;;75.10;44.58;;;10.50;99.90;;;;;;5012758;28;20103;-58
2023/03/20 06:33:55;;;;;;;72.80;44.95;;;10.60;99.90;;;;;;5012212;28;20045;-58
2023/03/20 06:36:41;;;;;;;72.75;45.55;;;10.50;99.90;;;;;;5009609;28;20550;-56
2023/03/20 06:39:27;;;;;;;74.00;45.42;;;10.70;99.90;;;;;;5012695;28;20072;-56
2023/03/20 06:42:13;;;;;;;85.72;51.33;;;10.80;99.90;;;;;;5012805;28;20033;-54
2023/03/20 06:44:59;;;;;;;80.95;50.97;;;10.70;99.90;;;;;;4997433;28;20041;-51
2023/03/20 06:47:46;;;;;;;82.35;51.38;;;10.80;99.90;;;;;;5012488;28;20030;-53
2023/03/20 06:50:32;;;;;;;81.45;51.17;;;10.80;99.90;;;;;;5005819;28;20026;-52
2023/03/20 06:53:18;;;;;;;82.28;50.75;;;10.90;99.90;;;;;;5014093;28;20026;-55
2023/03/20 06:56:04;;;;;;;84.00;52.50;;;11.00;99.90;;;;;;5011697;28;20045;-52
2023/03/20 06:58:50;;;;;;;83.68;51.65;;;11.10;99.90;;;;;;5012235;28;20041;-52
2023/03/20 07:01:36;;;;;;;85.47;54.55;;;11.00;99.90;;;;;;5009584;28;20109;-52
2023/03/20 07:04:22;;;;;;;89.25;55.58;;;11.10;99.90;;;;;;5011281;28;20038;-53
2023/03/20 07:07:08;;;;;;;89.03;54.80;;;11.20;99.90;;;;;;5005663;28;20031;-55
2023/03/20 07:09:54;;;;;;;93.32;55.42;;;11.30;99.90;;;;;;5009618;28;20037;-51
2023/03/20 07:12:40;;;;;;;85.40;54.15;;;11.30;99.90;;;;;;5006094;28;20169;-51
2023/03/20 07:15:28;;;;;;;94.63;55.00;;;11.40;99.90;;;;;;4997330;28;20029;-55
2023/03/20 07:18:14;;;;;;;85.28;53.53;;;11.30;99.90;;;;;;5003938;28;20045;-50
2023/03/20 07:21:02;;;;;;;86.85;54.97;;;11.30;99.90;;;;;;5002445;28;20093;-53
2023/03/20 07:23:48;;;;;;;90.95;55.15;;;11.30;99.90;;;;;;5011132;28;20153;-56
2023/03/20 07:26:34;;;;;;;89.10;52.47;;;11.40;99.90;;;;;;5011736;28;20032;-53
2023/03/20 07:29:20;;;;;;;75.35;48.53;;;11.30;99.90;;;;;;5010071;28;20080;-50
2023/03/20 07:32:06;;;;;;;69.80;44.83;;;11.40;99.90;;;;;;5008060;28;20033;-50
2023/03/20 07:34:52;;;;;;;68.78;44.25;;;11.50;99.90;;;;;;5011581;28;20053;-54
2023/03/20 07:37:39;;;;;;;67.75;44.33;;;11.60;99.90;;;;;;5004805;28;20117;-58
2023/03/20 07:40:25;;;;;;;62.30;42.05;;;11.60;99.90;;;;;;4975433;28;20031;-49
2023/03/20 07:43:11;;;;;;;64.38;39.50;;;11.70;99.90;;;;;;4998000;28;20152;-49
2023/03/20 07:45:57;;;;;;;56.42;38.78;;;11.90;99.90;;;;;;5005976;28;20034;-52
2023/03/20 07:48:43;;;;;;;56.75;37.45;;;12.00;99.90;;;;;;4995219;28;20510;-53
2023/03/20 07:51:29;;;;;;;54.58;37.92;;;12.10;99.90;;;;;;5005578;28;20034;-55
2023/03/20 07:54:16;;;;;;;65.97;41.03;;;12.20;99.90;;;;;;5002832;28;20516;-53
2023/03/20 07:57:04;;;;;;;62.75;41.80;;;12.30;99.90;;;;;;5004636;28;20441;-53
2023/03/20 07:59:50;;;;;;;65.80;43.80;;;12.30;99.90;;;;;;5001997;28;20040;-53
2023/03/20 08:02:36;;;;;;;61.85;42.13;;;12.40;99.90;;;;;;5000205;28;20030;-51
2023/03/20 08:05:22;;;;;;;66.15;42.97;;;12.40;99.90;;;;;;5005423;28;20490;-54
2023/03/20 08:08:08;;;;;;;71.45;46.33;;;12.30;99.90;;;;;;5002842;28;20141;-53
2023/03/20 08:10:55;;;;;;;75.10;47.20;;;12.30;99.90;;;;;;5001464;28;20062;-50
2023/03/20 08:13:41;;;;;;;71.32;46.75;;;12.40;99.90;;;;;;4988908;28;20033;-55
2023/03/20 08:16:27;;;;;;;72.50;48.60;;;12.30;99.90;;;;;;5002540;28;20039;-51
2023/03/20 08:19:13;;;;;;;76.25;51.50;;;12.20;99.90;;;;;;5006971;28;20038;-51
2023/03/20 08:21:59;;;;;;;75.90;50.28;;;12.10;99.90;;;;;;4993131;28;20042;-49
2023/03/20 08:24:45;;;;;;;67.07;46.97;;;12.10;99.90;;;;;;5001764;28;20056;-53
2023/03/20 08:27:31;;;;;;;74.90;47.58;;;12.00;99.90;;;;;;5000811;28;20104;-52
2023/03/20 08:30:16;;;;;;;73.50;48.45;;;11.90;99.90;;;;;;5019542;28;20033;-53
2023/03/20 08:33:03;;;;;;;74.38;47.10;;;12.00;99.90;;;;;;5028779;28;20068;-56
2023/03/20 08:35:58;;;;;;;67.60;45.20;;;12.00;99.90;;;;;;5029607;28;20034;-53
2023/03/20 08:38:44;;;;;;;;;;;11.90;99.90;;;;;;5020923;28;20022;-58
2023/03/20 08:41:30;;;;;;;;;;;11.90;99.90;;;;;;4996921;28;19920;-54
2023/03/20 08:44:15;;;;;;;67.30;43.58;;;12.00;99.90;;;;;;5009721;28;19924;-51
2023/03/20 08:47:03;;;;;;;66.35;42.22;;;11.90;99.90;;;;;;5009900;28;20105;-51
2023/03/20 08:49:49;;;;;;;67.47;43.65;;;12.00;99.90;;;;;;5011602;28;20127;-49
2023/03/20 08:52:35;;;;;;;63.40;42.45;;;12.00;99.90;;;;;;5010275;28;20089;-52
2023/03/20 08:55:21;;;;;;;62.13;42.30;;;12.10;99.90;;;;;;5010122;28;20447;-50
2023/03/20 08:58:07;;;;;;;64.68;43.38;;;12.20;99.90;;;;;;5011075;28;20446;-52
2023/03/20 09:00:53;;;;;;;63.55;41.50;;;12.30;99.90;;;;;;5012036;28;20525;-49
2023/03/20 09:03:39;;;;;;;60.88;41.55;;;12.40;99.90;;;;;;5009037;28;20038;-53
2023/03/20 09:06:25;;;;;;;60.45;41.20;;;12.30;99.90;;;;;;4992256;28;20030;-55
2023/03/20 09:09:14;;;;;;;60.65;42.03;;;12.20;99.90;;;;;;4997806;28;20501;-55
2023/03/20 09:12:00;;;;;;;58.15;40.80;;;12.20;99.90;;;;;;5010724;28;20141;-53
2023/03/20 09:14:46;;;;;;;58.88;39.80;;;12.30;99.90;;;;;;4996524;28;20080;-50
2023/03/20 09:17:32;;;;;;;61.42;40.42;;;12.20;99.90;;;;;;5009285;28;20371;-54
2023/03/20 09:20:18;;;;;;;60.60;42.42;;;12.20;99.90;;;;;;5009574;28;20041;-54
2023/03/20 09:23:04;;;;;;;60.50;40.85;;;12.20;99.90;;;;;;5001286;28;20096;-50
2023/03/20 09:25:50;;;;;;;62.55;42.30;;;12.00;99.90;;;;;;5010114;28;20125;-56
2023/03/20 09:28:36;;;;;;;62.65;41.30;;;12.00;99.90;;;;;;5011240;28;20022;-51
2023/03/20 09:31:22;;;;;;;63.35;41.20;;;11.90;99.90;;;;;;5006404;28;20080;-52
2023/03/20 09:34:09;;;;;;;62.38;40.25;;;11.80;99.90;;;;;;5002803;28;20102;-55
2023/03/20 09:36:55;;;;;;;65.20;41.00;;;11.90;99.90;;;;;;4988414;28;20018;-50
2023/03/20 09:39:41;;;;;;;60.75;40.47;;;11.90;99.90;;;;;;5001917;28;20467;-51
2023/03/20 09:42:55;;;;;;;65.43;39.92;;;11.90;99.90;;;;;;4993054;28;20038;-53
2023/03/20 09:45:41;;;;;;;52.75;36.00;;;11.80;99.90;;;;;;4989684;28;20557;-55
2023/03/20 09:48:44;;;;;;;54.80;35.60;;;11.80;99.90;;;;;;5002406;28;20491;-58
2023/03/20 09:51:48;;;;;;;54.35;35.17;;;12.00;99.90;;;;;;5022667;28;20022;-56
2023/03/20 09:54:42;;;;;;;53.25;36.53;;;12.10;99.90;;;;;;5009069;28;20018;-58
2023/03/20 09:57:38;;;;;;;54.00;36.33;;;12.20;99.90;;;;;;5022806;28;20100;-56
2023/03/20 10:00:27;;;;;;;59.78;39.30;;;12.20;99.90;;;;;;5020961;28;20050;-56
2023/03/20 10:03:23;;;;;;;57.67;36.95;;;12.30;99.90;;;;;;5014283;28;20093;-55
2023/03/20 10:06:15;;;;;;;55.22;36.00;;;12.20;99.90;;;;;;5014438;28;20499;-52
2023/03/20 10:09:10;;;;;;;54.45;36.25;;;12.10;99.90;;;;;;5013838;28;20517;-51
2023/03/20 10:12:22;;;;;;;55.30;35.50;;;12.10;99.90;;;;;;5009038;28;20021;-56
2023/03/20 10:15:32;;;;;;;53.78;36.55;;;11.70;99.90;;;;;;5012250;28;20026;-56
2023/03/20 10:18:26;;;;;;;57.40;36.70;;;11.70;99.90;;;;;;5013971;28;20032;-53
2023/03/20 10:21:17;;;;;;;57.92;37.78;;;11.70;99.90;;;;;;5013568;28;20042;-50
2023/03/20 10:24:05;;;;;;;54.80;37.03;;;11.70;99.90;;;;;;5013499;28;20052;-52
2023/03/20 10:26:52;;;;;;;48.95;33.95;;;11.80;99.90;;;;;;5012951;28;20517;-53
2023/03/20 10:29:48;;;;;;;54.00;37.22;;;11.80;99.90;;;;;;5013728;28;20033;-55
2023/03/20 10:32:49;;;;;;;56.92;36.05;;;11.90;99.90;;;;;;5011879;28;20018;-50
2023/03/20 10:35:47;;;;;;;49.30;32.78;;;12.00;99.90;;;;;;5007976;28;20513;-50
2023/03/20 10:38:41;;;;;;;52.33;32.97;;;11.90;99.90;;;;;;5012880;28;20041;-51
2023/03/20 10:41:33;;;;;;;49.83;33.45;;;11.80;99.90;;;;;;5013506;28;20029;-50
2023/03/20 10:44:32;;;;;;;54.88;35.30;;;11.90;99.90;;;;;;5012902;28;20026;-52
2023/03/20 10:47:22;;;;;;;47.97;31.98;;;12.00;99.90;;;;;;5013732;28;20072;-52
2023/03/20 10:50:16;;;;;;;47.78;32.60;;;12.00;99.90;;;;;;5014019;28;20026;-50
2023/03/20 10:53:04;;;;;;;45.13;31.25;;;12.20;99.90;;;;;;5012830;28;20026;-51
2023/03/20 10:55:50;;;;;;;73.63;46.65;;;12.30;99.90;;;;;;5013847;28;20408;-53
2023/03/20 10:58:40;;;;;;;57.92;36.90;;;12.30;99.90;;;;;;5013623;28;20100;-52
2023/03/20 11:01:26;;;;;;;52.83;34.47;;;12.30;99.90;;;;;;5001216;28;20060;-56
2023/03/20 11:04:12;;;;;;;46.33;31.73;;;12.30;99.90;;;;;;5013282;28;20438;-56
2023/03/20 11:07:27;;;;;;;48.40;32.72;;;12.40;99.90;;;;;;5013023;28;20486;-52
2023/03/20 11:10:15;;;;;;;44.55;30.60;;;12.40;99.90;;;;;;4998630;28;20062;-50
2023/03/20 11:13:26;;;;;;;48.08;30.90;;;12.40;99.90;;;;;;5013305;28;20143;-54
2023/03/20 11:16:24;;;;;;;46.45;30.77;;;12.40;99.90;;;;;;5013439;28;20469;-53
2023/03/20 11:19:11;;;;;;;46.42;31.08;;;12.50;99.90;;;;;;5014091;28;20088;-56
2023/03/20 11:22:00;;;;;;;44.15;31.17;;;12.40;99.90;;;;;;4998924;28;20022;-50
2023/03/20 11:24:50;;;;;;;44.00;31.13;;;12.50;99.90;;;;;;4998040;28;20069;-54
2023/03/20 11:27:36;;;;;;;46.75;31.08;;;12.50;99.90;;;;;;5011101;28;20069;-52
2023/03/20 11:30:22;;;;;;;46.30;31.13;;;12.60;99.90;;;;;;5011635;28;20046;-57
2023/03/20 11:33:08;;;;;;;44.88;30.88;;;12.60;99.90;;;;;;5011100;28;20037;-56
2023/03/20 11:35:57;;;;;;;41.00;28.52;;;12.40;99.90;;;;;;5012222;28;20030;-58
2023/03/20 11:38:45;;;;;;;40.50;29.00;;;12.50;99.90;;;;;;5011277;28;20080;-55
2023/03/20 11:41:31;;;;;;;46.83;31.02;;;12.50;99.90;;;;;;5010456;28;20026;-56
2023/03/20 11:44:29;;;;;;;40.83;28.90;;;12.50;99.90;;;;;;5010735;28;20490;-56
2023/03/20 11:47:23;;;;;;;40.65;28.52;;;12.50;99.90;;;;;;4993446;28;21798;-55
2023/03/20 11:50:26;;;;;;;39.95;29.08;;;12.50;99.90;;;;;;5011605;28;20064;-55
2023/03/20 11:53:23;;;;;;;40.88;28.52;;;12.50;99.90;;;;;;5010220;28;20402;-58
2023/03/20 11:56:12;;;;;;;48.33;29.08;;;12.50;99.90;;;;;;5011238;28;20768;-58
2023/03/20 11:59:09;;;;;;;40.60;26.73;;;12.40;99.90;;;;;;4997858;28;20030;-52
2023/03/20 12:01:57;;;;;;;36.42;26.35;;;12.30;99.90;;;;;;5010193;28;20103;-57
2023/03/20 12:04:46;;;;;;;43.45;28.00;;;12.30;99.90;;;;;;5005077;28;20022;-56
2023/03/20 12:07:34;;;;;;;37.60;25.33;;;12.30;99.90;;;;;;5009882;28;20091;-56
2023/03/20 12:10:20;;;;;;;42.58;26.98;;;12.50;99.90;;;;;;5010221;28;20099;-52
2023/03/20 12:13:26;;;;;;;34.78;24.85;;;12.50;99.90;;;;;;5011679;28;20037;-57
2023/03/20 12:16:16;;;;;;;35.50;23.48;;;12.50;99.90;;;;;;5011697;28;20029;-58
2023/03/20 12:19:11;;;;;;;36.50;23.70;;;12.20;99.90;;;;;;5010905;28;20120;-58
2023/03/20 12:22:27;;;;;;;33.33;21.15;;;12.20;99.90;;;;;;5010922;28;20018;-57
2023/03/20 12:25:36;;;;;;;33.80;21.58;;;12.10;99.90;;;;;;5005723;28;20511;-57
2023/03/20 12:28:46;;;;;;;32.65;21.67;;;12.00;99.90;;;;;;5011485;28;20048;-56
2023/03/20 12:31:47;;;;;;;31.55;19.67;;;11.90;99.90;;;;;;5012567;28;20022;-55
2023/03/20 12:34:45;;;;;;;29.05;18.83;;;11.90;99.90;;;;;;5010184;28;20030;-54
2023/03/20 12:37:33;;;;;;;31.17;20.80;;;11.90;99.90;;;;;;5010945;28;20022;-56
2023/03/20 12:40:29;;;;;;;31.88;20.85;;;11.90;99.90;;;;;;4992184;28;20085;-58
2023/03/20 12:43:20;;;;;;;29.52;20.25;;;11.90;99.90;;;;;;5010075;28;20028;-52
2023/03/20 12:46:24;;;;;;;29.75;20.23;;;11.90;99.90;;;;;;5014643;28;20038;-52
2023/03/20 12:49:10;;;;;;;30.30;20.15;;;11.90;99.90;;;;;;5013317;28;20033;-49
2023/03/20 12:52:32;;;;;;;32.60;21.35;;;11.90;99.90;;;;;;5013693;28;20435;-50
2023/03/20 12:55:37;;;;;;;31.38;21.10;;;12.20;99.90;;;;;;5013223;28;20037;-51
2023/03/20 12:58:49;;;;;;;31.40;21.05;;;12.10;99.90;;;;;;5000271;28;20121;-55
2023/03/20 13:01:38;;;;;;;35.75;23.35;;;12.20;99.90;;;;;;5011939;28;20038;-53
2023/03/20 13:04:50;;;;;;;33.63;22.50;;;12.30;99.90;;;;;;4996421;28;20057;-56
2023/03/20 13:07:45;;;;;;;32.70;22.85;;;12.40;99.90;;;;;;5009556;28;20065;-53
2023/03/20 13:10:38;;;;;;;37.65;22.58;;;12.50;99.90;;;;;;5011127;28;20088;-55
2023/03/20 13:13:59;;;;;;;36.20;22.38;;;12.50;99.90;;;;;;5009616;28;20526;-57
2023/03/20 13:17:24;;;;;;;33.25;23.38;;;12.70;99.90;;;;;;4950609;29;20458;-57
2023/03/20 13:20:48;;;;;;;34.58;23.55;;;13.00;99.90;;;;;;4950018;29;20035;-54
2023/03/20 13:23:40;;;;;;;36.42;23.42;;;13.10;99.90;;;;;;4953075;29;20539;-56
2023/03/20 13:27:05;;;;;;;35.78;23.38;;;13.20;99.90;;;;;;5013373;28;20057;-56
2023/03/20 13:29:58;;;;;;;34.78;23.23;;;13.30;99.90;;;;;;5015607;28;20118;-55
2023/03/20 13:33:04;;;;;;;35.40;22.70;;;13.30;99.90;;;;;;5014610;28;20183;-52
2023/03/20 13:35:58;;;;;;;33.47;23.35;;;13.30;99.90;;;;;;5015107;28;20176;-54
2023/03/20 13:38:57;;;;;;;39.78;24.92;;;13.30;99.90;;;;;;5015796;28;20061;-50
2023/03/20 13:41:46;;;;;;;36.20;23.50;;;13.40;99.90;;;;;;5014426;28;20510;-55
2023/03/20 13:44:33;;;;;;;36.97;23.90;;;13.40;99.90;;;;;;5005954;28;20042;-56
2023/03/20 13:47:27;;;;;;;38.78;27.00;;;13.40;99.90;;;;;;4999988;28;20038;-52
2023/03/20 13:50:35;;;;;;;35.78;23.33;;;13.50;99.90;;;;;;5007034;28;20030;-53
2023/03/20 13:53:46;;;;;;;35.08;23.58;;;13.50;99.90;;;;;;5014184;28;20486;-50
2023/03/20 13:56:41;;;;;;;33.92;23.17;;;13.40;99.90;;;;;;4994604;28;20022;-52
2023/03/20 13:59:51;;;;;;;39.85;25.10;;;13.50;99.90;;;;;;5000566;28;20056;-50
2023/03/20 14:02:40;;;;;;;39.97;23.67;;;13.70;99.90;;;;;;5014707;28;20026;-55
2023/03/20 14:05:27;;;;;;;32.53;23.23;;;14.20;99.90;;;;;;5013459;28;20087;-49
2023/03/20 14:08:21;;;;;;;31.10;23.27;;;14.30;99.90;;;;;;4979628;28;20044;-52
2023/03/20 14:11:14;;;;;;;36.20;23.45;;;14.50;99.90;;;;;;5011778;28;20077;-52
2023/03/20 14:14:26;;;;;;;34.55;22.77;;;14.30;99.90;;;;;;5014218;28;20523;-51
2023/03/20 14:17:21;;;;;;;32.72;22.92;;;14.10;99.90;;;;;;4993830;28;20137;-52
2023/03/20 14:20:23;;;;;;;33.63;23.67;;;13.70;99.90;;;;;;5002187;28;20081;-55
2023/03/20 14:23:24;;;;;;;30.42;22.42;;;13.30;99.90;;;;;;5015004;28;20021;-51
2023/03/20 14:26:21;;;;;;;32.83;23.77;;;13.20;99.90;;;;;;5013386;28;20045;-54
2023/03/20 14:29:10;;;;;;;34.25;23.83;;;13.20;99.90;;;;;;5013163;28;20099;-50
2023/03/20 14:32:30;;;;;;;49.33;25.38;;;13.10;99.90;;;;;;5013457;28;20034;-53
2023/03/20 14:35:27;;;;;;;43.75;26.52;;;13.10;99.90;;;;;;4999106;28;20105;-53
2023/03/20 14:38:34;;;;;;;43.72;28.52;;;13.00;99.90;;;;;;5013315;28;20026;-48